Time;durP1;ratioP1;P1;durP2;ratioP2;P2;SDS_P1;SDS_P2;PMS_P1;PMS_P2;Temp;Humidity;BMP_temperature;BMP_pressure;BME280_temperature;BME280_humidity;BME280_pressure;Samples;Min_cycle;Max_cycle;Signal;HPM_P1;HPM_P2
2022/09/20 00:03:53;;;;;;;1.52;0.80;;;;;;;8.39;100.00;96430.50;10340964;28;96884;-63
2022/09/20 00:09:00;;;;;;;2.90;0.85;;;;;;;8.41;100.00;96425.16;10340489;28;97059;-62
2022/09/20 00:14:04;;;;;;;1.92;0.85;;;;;;;8.32;100.00;96417.16;10340388;28;96998;-62
2022/09/20 00:19:08;;;;;;;1.70;0.80;;;;;;;8.02;100.00;96423.16;10340175;28;97239;-64
2022/09/20 00:24:13;;;;;;;2.13;0.95;;;;;;;7.90;100.00;96432.81;10339822;28;98139;-62
2022/09/20 00:29:15;;;;;;;4.38;0.90;;;;;;;7.79;100.00;96440.69;10340720;28;97103;-62
2022/09/20 00:39:40;;;;;;;3.40;0.80;;;;;;;7.65;100.00;96438.34;10309884;28;96823;-63
2022/09/20 00:44:47;;;;;;;1.45;1.05;;;;;;;7.56;100.00;96435.56;10331844;28;96727;-62
2022/09/20 00:49:53;;;;;;;2.55;0.93;;;;;;;7.46;100.00;96429.47;10340040;28;97094;-62
2022/09/20 00:54:58;;;;;;;;;;;;;;;7.42;100.00;96435.84;10328855;28;96913;-63
2022/09/20 01:00:02;;;;;;;3.25;1.00;;;;;;;7.36;100.00;96431.16;10356952;28;97209;-62
2022/09/20 01:05:08;;;;;;;3.67;1.20;;;;;;;7.30;100.00;96429.03;10344512;28;96841;-62
2022/09/20 01:10:12;;;;;;;4.07;1.35;;;;;;;7.26;100.00;96433.66;10338042;28;97163;-62
2022/09/20 01:15:15;;;;;;;6.75;1.20;;;;;;;7.30;100.00;96429.03;10339794;28;97000;-62
2022/09/20 01:20:22;;;;;;;3.17;1.27;;;;;;;7.26;100.00;96432.84;10379488;28;96680;-62
2022/09/20 01:25:43;;;;;;;3.42;1.10;;;;;;;7.26;100.00;96430.22;10342748;28;96744;-62
2022/09/20 01:30:52;;;;;;;3.60;1.13;;;;;;;7.20;100.00;96424.56;10338759;28;97149;-62
2022/09/20 01:35:58;;;;;;;3.53;1.30;;;;;;;7.19;100.00;96433.31;10338569;28;97177;-62
2022/09/20 01:41:07;;;;;;;1.65;0.90;;;;;;;7.11;100.00;96430.50;10337538;28;96971;-62
2022/09/20 01:46:21;;;;;;;5.32;1.35;;;;;;;7.00;100.00;96422.72;10337900;28;96765;-62
2022/09/20 01:51:52;;;;;;;3.75;1.38;;;;;;;7.06;100.00;96417.06;10337712;28;97160;-62
2022/09/20 01:57:31;;;;;;;2.78;1.02;;;;;;;7.02;100.00;96411.28;10332600;28;96911;-62
2022/09/20 02:03:06;;;;;;;3.40;1.33;;;;;;;6.96;100.00;96416.13;10330093;28;98816;-62
2022/09/20 02:08:28;;;;;;;3.87;1.30;;;;;;;6.90;100.00;96411.38;10185052;28;97079;-62
2022/09/20 02:13:40;;;;;;;3.30;1.60;;;;;;;6.88;100.00;96415.88;10170749;28;97029;-62
2022/09/20 02:19:02;;;;;;;2.38;1.20;;;;;;;6.87;100.00;96407.25;10169711;28;96892;-63
2022/09/20 02:24:16;;;;;;;3.00;1.20;;;;;;;6.86;100.00;96416.00;10192440;28;98149;-62
2022/09/20 02:29:32;;;;;;;2.90;1.10;;;;;;;6.81;100.00;96410.34;10188056;28;97376;-62
2022/09/20 02:34:55;;;;;;;;;;;;;;;6.76;100.00;96410.69;10202213;28;99455;-62
2022/09/20 02:40:22;;;;;;;4.25;1.50;;;;;;;6.63;100.00;96404.81;10202034;28;98603;-62
2022/09/20 02:45:32;;;;;;;3.45;1.30;;;;;;;6.50;100.00;96406.69;10295111;28;98514;-62
2022/09/20 02:50:45;;;;;;;2.58;1.30;;;;;;;6.45;100.00;96407.88;10334674;28;98248;-62
2022/09/20 02:56:01;;;;;;;2.65;1.20;;;;;;;6.33;100.00;96406.25;10337275;28;97115;-62
2022/09/20 03:01:13;;;;;;;2.90;1.35;;;;;;;6.12;100.00;96411.28;10325881;28;97344;-62
2022/09/20 03:06:24;;;;;;;2.03;1.23;;;;;;;6.07;100.00;96408.22;10334005;28;97070;-61
2022/09/20 03:11:35;;;;;;;2.55;1.20;;;;;;;6.03;100.00;96415.38;10330803;28;99148;-62
2022/09/20 03:16:48;;;;;;;3.13;0.90;;;;;;;6.05;100.00;96416.13;10332185;28;98597;-62
2022/09/20 03:22:03;;;;;;;2.42;1.00;;;;;;;6.06;100.00;96409.97;10331838;28;98548;-62
2022/09/20 03:27:17;;;;;;;3.05;1.40;;;;;;;5.99;100.00;96421.75;10323698;28;96947;-62
2022/09/20 03:32:34;;;;;;;3.42;1.50;;;;;;;5.88;100.00;96419.16;10312369;28;96974;-62
2022/09/20 03:37:57;;;;;;;1.88;1.00;;;;;;;5.83;100.00;96421.25;10332342;28;97226;-61
2022/09/20 03:43:10;;;;;;;2.55;1.13;;;;;;;5.86;100.00;96410.63;10333270;28;96869;-62
2022/09/20 03:48:35;;;;;;;4.15;1.30;;;;;;;5.83;100.00;96418.66;10320168;28;97258;-61
2022/09/20 03:54:03;;;;;;;1.65;0.77;;;;;;;5.75;100.00;96408.03;10322471;28;96936;-62
2022/09/20 03:59:26;;;;;;;2.15;0.93;;;;;;;5.81;100.00;96417.91;10336479;28;97410;-62
2022/09/20 04:04:39;;;;;;;6.10;1.10;;;;;;;5.85;100.00;96420.19;10328869;28;97838;-61
2022/09/20 04:10:12;;;;;;;4.03;0.85;;;;;;;5.91;100.00;96424.06;10318125;28;96765;-62
2022/09/20 04:15:30;;;;;;;1.77;0.90;;;;;;;5.90;100.00;96417.25;10331352;28;98666;-62
2022/09/20 04:20:40;;;;;;;1.73;0.70;;;;;;;5.82;100.00;96424.78;10324798;28;96844;-61
2022/09/20 04:25:47;;;;;;;5.07;0.93;;;;;;;5.82;100.00;96423.00;10333861;28;96945;-61
2022/09/20 04:30:55;;;;;;;4.05;0.90;;;;;;;5.76;100.00;96417.47;10332060;28;98683;-61
2022/09/20 04:36:29;;;;;;;4.30;0.95;;;;;;;5.63;100.00;96415.75;10326246;28;98471;-62
2022/09/20 04:42:07;;;;;;;6.07;1.42;;;;;;;5.60;100.00;96413.41;10321668;28;98472;-62
2022/09/20 04:47:45;;;;;;;3.45;1.02;;;;;;;5.47;100.00;96425.59;10322158;28;97777;-62
2022/09/20 04:53:17;;;;;;;2.13;1.00;;;;;;;5.39;100.00;96425.31;10330234;28;100014;-63
2022/09/20 04:58:55;;;;;;;4.32;1.10;;;;;;;5.32;100.00;96430.97;10356807;28;96915;-61
2022/09/20 05:04:28;;;;;;;4.38;1.20;;;;;;;5.26;100.00;96436.56;10364350;28;97081;-62
2022/09/20 05:09:52;;;;;;;3.95;1.23;;;;;;;5.21;100.00;96441.25;10189061;28;97166;-62
2022/09/20 05:15:19;;;;;;;4.65;1.27;;;;;;;5.19;100.00;96429.34;10211631;28;97901;-62
2022/09/20 05:20:53;;;;;;;3.70;1.10;;;;;;;5.16;100.00;96445.94;10200230;28;97217;-62
2022/09/20 05:26:10;;;;;;;5.70;2.22;;;;;;;5.11;100.00;96448.00;10080526;28;100215;-62
2022/09/20 05:31:18;;;;;;;2.35;1.02;;;;;;;5.11;100.00;96463.56;10085515;28;98613;-62
2022/09/20 05:36:30;;;;;;;3.38;1.45;;;;;;;5.01;100.00;96444.41;10088256;28;96959;-62
2022/09/20 05:41:45;;;;;;;3.88;1.27;;;;;;;5.00;100.00;96453.13;10051808;28;96980;-62
2022/09/20 05:46:57;;;;;;;4.15;1.40;;;;;;;5.08;100.00;96462.03;10174005;28;99961;-62
2022/09/20 05:52:14;;;;;;;7.97;1.25;;;;;;;5.19;100.00;96453.47;10205355;28;97484;-62
2022/09/20 05:57:28;;;;;;;3.42;1.80;;;;;;;5.30;100.00;96466.47;10208488;28;98224;-62
2022/09/20 06:02:40;;;;;;;3.33;1.40;;;;;;;5.43;100.00;96460.44;10297174;28;97950;-62
2022/09/20 06:07:55;;;;;;;2.80;1.40;;;;;;;5.52;100.00;96465.78;10309106;28;97261;-62
2022/09/20 06:13:11;;;;;;;4.05;1.27;;;;;;;5.64;100.00;96473.63;10327627;28;97509;-62
2022/09/20 06:18:24;;;;;;;3.33;1.30;;;;;;;5.68;100.00;96468.06;10331871;28;97184;-62
2022/09/20 06:23:27;;;;;;;3.15;1.27;;;;;;;5.69;100.00;96461.97;10326114;28;96865;-62
2022/09/20 06:28:34;;;;;;;2.47;1.42;;;;;;;5.76;100.00;96471.91;10317052;28;98738;-61
2022/09/20 06:33:43;;;;;;;3.53;1.50;;;;;;;5.81;100.00;96480.13;10322789;28;97363;-62
2022/09/20 06:44:20;;;;;;;3.55;1.77;;;;;;;6.05;100.00;96478.34;10333455;28;96737;-66
2022/09/20 06:49:27;;;;;;;3.92;1.95;;;;;;;6.12;100.00;96483.06;10335773;28;96707;-66
2022/09/20 06:54:30;;;;;;;4.65;1.60;;;;;;;6.25;100.00;96479.44;10334862;28;96761;-66
2022/09/20 06:59:34;;;;;;;6.15;1.75;;;;;;;6.47;100.00;96483.84;10335529;28;96774;-66
2022/09/20 07:04:37;;;;;;;3.83;1.30;;;;;;;6.77;100.00;96482.44;10335892;28;96699;-66
2022/09/20 07:09:40;;;;;;;4.50;1.40;;;;;;;7.22;100.00;96479.84;10330915;28;96821;-66
2022/09/20 07:14:44;;;;;;;3.72;1.10;;;;;;;7.86;100.00;96482.63;10333686;28;97264;-66
2022/09/20 07:19:47;;;;;;;3.05;1.20;;;;;;;8.34;100.00;96482.09;10333851;28;97173;-66
2022/09/20 07:24:50;;;;;;;5.38;1.17;;;;;;;8.64;100.00;96477.91;10333283;28;96832;-66
2022/09/20 07:29:54;;;;;;;5.13;1.10;;;;;;;8.97;100.00;96489.84;10339595;28;97002;-66
2022/09/20 07:34:58;;;;;;;3.13;0.83;;;;;;;9.09;100.00;96483.56;10340888;28;96861;-66
2022/09/20 07:40:01;;;;;;;2.67;0.98;;;;;;;9.32;100.00;96491.16;10309374;28;96888;-66
2022/09/20 07:45:06;;;;;;;2.33;0.80;;;;;;;9.62;100.00;96484.25;10303880;28;97268;-66
2022/09/20 07:50:10;;;;;;;5.43;0.93;;;;;;;9.82;100.00;96491.13;10339170;28;97106;-66
2022/09/20 07:55:13;;;;;;;3.67;0.90;;;;;;;9.91;100.00;96488.69;10307822;28;98256;-66
2022/09/20 08:00:17;;;;;;;2.75;1.20;;;;;;;10.05;100.00;96498.69;10332806;28;96821;-66
2022/09/20 08:05:20;;;;;;;2.50;1.13;;;;;;;10.23;100.00;96493.59;10334668;28;98569;-66
2022/09/20 08:10:24;;;;;;;2.40;0.90;;;;;;;10.35;100.00;96496.88;10333121;28;97064;-66
2022/09/20 08:15:28;;;;;;;2.67;1.10;;;;;;;10.38;100.00;96502.63;10338988;28;97056;-66
2022/09/20 08:20:32;;;;;;;2.80;0.80;;;;;;;10.42;100.00;96500.56;10340523;28;96893;-66
2022/09/20 08:25:35;;;;;;;3.35;1.00;;;;;;;10.51;100.00;96504.97;10311740;28;97236;-66
2022/09/20 08:30:39;;;;;;;3.97;1.20;;;;;;;10.67;100.00;96506.16;10334060;28;96949;-66
2022/09/20 08:35:42;;;;;;;3.90;1.00;;;;;;;10.79;100.00;96511.06;10339885;28;97075;-66
2022/09/20 08:40:45;;;;;;;2.65;0.70;;;;;;;10.88;100.00;96513.81;10338105;28;98618;-66
2022/09/20 08:45:49;;;;;;;2.58;0.95;;;;;;;10.95;100.00;96509.66;10298935;28;96848;-66
2022/09/20 08:50:52;;;;;;;1.97;0.70;;;;;;;11.09;100.00;96505.75;10298313;28;96904;-66
2022/09/20 08:55:56;;;;;;;5.47;1.17;;;;;;;11.23;100.00;96499.22;10337101;28;97013;-66
2022/09/20 09:01:01;;;;;;;5.72;1.58;;;;;;;11.28;100.00;96500.41;10339701;28;96771;-66
2022/09/20 09:06:04;;;;;;;3.97;0.93;;;;;;;11.31;100.00;96491.44;10339341;28;97177;-66
2022/09/20 09:11:15;;;;;;;3.35;1.00;;;;;;;11.36;100.00;96486.63;10325055;28;96776;-66
2022/09/20 09:16:22;;;;;;;3.22;1.00;;;;;;;11.49;100.00;96491.53;10320572;28;96898;-66
2022/09/20 09:21:33;;;;;;;3.25;1.10;;;;;;;11.57;100.00;96488.16;10330013;28;97899;-65
2022/09/20 09:26:38;;;;;;;2.17;0.90;;;;;;;11.68;100.00;96494.00;10334222;28;96818;-66
2022/09/20 09:31:43;;;;;;;5.07;1.20;;;;;;;11.81;100.00;96495.44;10331012;28;96958;-66
2022/09/20 09:36:46;;;;;;;3.67;1.40;;;;;;;11.90;100.00;96492.75;10330060;28;98716;-66
2022/09/20 09:41:49;;;;;;;5.20;1.55;;;;;;;12.04;100.00;96486.19;10336508;28;97666;-66
2022/09/20 09:46:55;;;;;;;6.55;2.25;;;;;;;12.20;100.00;96479.44;10322235;28;99296;-66
2022/09/20 09:52:11;;;;;;;4.25;1.63;;;;;;;12.28;100.00;96484.72;10335959;28;96891;-66
2022/09/20 09:57:37;;;;;;;6.03;1.65;;;;;;;12.36;100.00;96481.34;10335430;28;96936;-66
2022/09/20 10:02:49;;;;;;;;;;;;;;;12.53;100.00;96479.63;10323994;28;99620;-66
2022/09/20 10:07:59;;;;;;;3.45;1.35;;;;;;;12.63;100.00;96485.59;10334579;28;96981;-66
2022/09/20 10:13:18;;;;;;;3.25;1.38;;;;;;;12.70;100.00;96476.16;10320302;28;96878;-66
2022/09/20 10:18:34;;;;;;;4.75;1.50;;;;;;;12.83;100.00;96471.31;10336839;28;96644;-66
2022/09/20 10:23:52;;;;;;;2.80;1.00;;;;;;;12.92;100.00;96469.56;10323983;28;96818;-66
2022/09/20 10:29:21;;;;;;;5.15;1.10;;;;;;;13.03;100.00;96460.59;10337063;28;96855;-66
2022/09/20 10:35:06;;;;;;;2.03;0.93;;;;;;;13.21;100.00;96468.41;10336495;28;96692;-66
2022/09/20 10:40:24;;;;;;;2.22;0.80;;;;;;;13.35;100.00;96459.09;10331188;28;96904;-66
2022/09/20 10:45:33;;;;;;;3.33;1.00;;;;;;;13.56;100.00;96450.78;10312168;28;97621;-66
2022/09/20 10:51:01;;;;;;;3.90;1.08;;;;;;;13.70;100.00;96451.94;10295860;28;96868;-66
2022/09/20 10:56:22;;;;;;;5.43;1.45;;;;;;;13.75;100.00;96449.66;10334392;28;96899;-66
2022/09/20 11:01:33;;;;;;;2.17;0.82;;;;;;;13.80;100.00;96452.63;10341632;28;96643;-66
2022/09/20 11:06:49;;;;;;;6.18;1.30;;;;;;;14.00;100.00;96448.69;10338451;28;96920;-66
2022/09/20 11:11:58;;;;;;;2.78;1.10;;;;;;;14.07;100.00;96448.03;10343084;28;98483;-66
2022/09/20 11:17:08;;;;;;;3.03;1.38;;;;;;;14.22;97.95;96450.81;10341422;28;97264;-66
2022/09/20 11:22:15;;;;;;;4.78;1.02;;;;;;;14.32;96.21;96452.31;10334748;28;96824;-66
2022/09/20 11:27:28;;;;;;;4.40;1.08;;;;;;;14.40;94.94;96453.28;10301777;28;96672;-66
2022/09/20 11:32:40;;;;;;;4.13;1.23;;;;;;;14.52;92.00;96446.69;10301113;28;96771;-66
2022/09/20 11:37:51;;;;;;;2.50;0.88;;;;;;;14.68;90.67;96453.72;10313517;28;96776;-66
2022/09/20 11:42:57;;;;;;;3.05;0.90;;;;;;;14.80;89.30;96447.16;10337732;28;96853;-66
2022/09/20 11:48:06;;;;;;;3.78;1.00;;;;;;;14.87;88.14;96449.91;10341851;28;97153;-66
2022/09/20 11:53:24;;;;;;;3.67;1.05;;;;;;;14.85;87.21;96442.19;10339753;28;96748;-66
2022/09/20 11:58:30;;;;;;;1.50;0.82;;;;;;;14.88;85.12;96420.81;10338941;28;96861;-66
2022/09/20 12:03:36;;;;;;;2.97;1.13;;;;;;;15.09;83.70;96438.63;10339414;28;96775;-66
2022/09/20 12:08:41;;;;;;;2.25;0.93;;;;;;;15.24;82.66;96437.94;10339740;28;96648;-66
2022/09/20 12:13:58;;;;;;;4.03;1.20;;;;;;;15.34;81.49;96430.66;10340660;28;96771;-66
2022/09/20 12:19:05;;;;;;;2.50;1.02;;;;;;;15.24;78.91;96420.31;10340726;28;96965;-66
2022/09/20 12:24:21;;;;;;;1.95;0.82;;;;;;;15.15;73.30;96416.09;10340126;28;96720;-66
2022/09/20 12:30:03;;;;;;;1.70;1.20;;;;;;;15.15;72.51;96424.00;10340672;28;97507;-66
2022/09/20 12:35:43;;;;;;;4.97;1.63;;;;;;;15.44;74.97;96420.72;10335273;28;96816;-66
2022/09/20 12:40:59;;;;;;;3.00;0.80;;;;;;;15.81;73.41;96416.53;10316019;28;97080;-66
2022/09/20 12:46:04;;;;;;;6.95;1.33;;;;;;;16.11;73.29;96418.47;10337581;28;97039;-66
2022/09/20 12:56:45;;;;;;;3.35;1.08;;;;;;;16.20;70.09;96420.81;10298425;28;96861;-66
2022/09/20 13:01:49;;;;;;;3.90;0.75;;;;;;;16.39;68.92;96422.13;10298359;28;96831;-66
2022/09/20 13:07:32;;;;;;;1.50;0.60;;;;;;;16.63;66.99;96428.97;10303479;28;96739;-66
2022/09/20 13:12:39;;;;;;;3.45;0.90;;;;;;;16.69;67.68;96406.34;10324297;28;99533;-66
2022/09/20 13:17:44;;;;;;;1.48;0.55;;;;;;;16.80;68.29;96402.47;10338400;28;96781;-66
2022/09/20 13:22:48;;;;;;;3.53;0.90;;;;;;;16.55;68.19;96397.41;10338567;28;97091;-66
2022/09/20 13:27:57;;;;;;;2.50;0.80;;;;;;;16.56;67.24;96403.53;10332979;28;97020;-66
2022/09/20 13:38:31;;;;;;;4.63;0.70;;;;;;;17.28;65.89;96408.13;10399651;28;97007;-65
2022/09/20 13:43:39;;;;;;;2.55;0.95;;;;;;;17.34;64.92;96396.81;10375831;28;97317;-65
2022/09/20 13:48:42;;;;;;;1.75;0.70;;;;;;;17.44;64.82;96400.97;10382452;28;99260;-65
2022/09/20 13:53:47;;;;;;;3.53;1.10;;;;;;;17.46;64.38;96388.44;10342936;28;98528;-65
2022/09/20 13:58:51;;;;;;;2.47;0.90;;;;;;;17.73;63.95;96395.63;10361206;28;97696;-65
2022/09/20 14:03:55;;;;;;;1.67;0.50;;;;;;;17.81;61.92;96389.38;10363813;28;97389;-65
2022/09/20 14:09:01;;;;;;;2.65;1.20;;;;;;;18.19;62.15;96385.66;10372077;28;96878;-66
2022/09/20 14:14:13;;;;;;;1.92;0.90;;;;;;;18.20;61.59;96390.72;10361674;28;96837;-65
2022/09/20 14:19:30;;;;;;;3.50;1.20;;;;;;;18.50;61.60;96383.44;10353102;28;96930;-65
2022/09/20 14:24:36;;;;;;;2.03;0.60;;;;;;;18.40;62.11;96385.59;10384551;27;96833;-66
2022/09/20 14:29:41;;;;;;;3.28;0.90;;;;;;;18.55;62.29;96390.78;10359322;28;96945;-65
2022/09/20 14:34:46;;;;;;;2.03;0.80;;;;;;;18.42;60.83;96388.88;10336105;28;98591;-65
2022/09/20 14:39:55;;;;;;;4.75;0.90;;;;;;;18.01;62.10;96386.13;10346036;28;98551;-65
2022/09/20 14:44:58;;;;;;;2.65;0.93;;;;;;;18.11;62.01;96381.31;10399458;28;96800;-65
2022/09/20 14:50:02;;;;;;;3.28;1.00;;;;;;;18.20;60.46;96382.81;10371837;28;99692;-65
2022/09/20 14:55:21;;;;;;;2.08;1.00;;;;;;;17.77;62.13;96390.78;10350698;28;96874;-66
2022/09/20 15:00:25;;;;;;;3.15;0.90;;;;;;;17.62;64.94;96387.38;10342890;28;97063;-66
2022/09/20 15:05:28;;;;;;;6.22;1.20;;;;;;;18.02;61.71;96378.00;10338720;28;96830;-66
2022/09/20 15:10:33;;;;;;;4.00;0.90;;;;;;;17.96;63.02;96376.13;10347269;28;97637;-66
2022/09/20 15:15:35;;;;;;;1.10;0.70;;;;;;;17.88;63.19;96371.78;10338418;28;96941;-66
2022/09/20 15:20:38;;;;;;;2.45;0.60;;;;;;;18.32;62.13;96383.09;10351322;28;96988;-66
2022/09/20 15:25:42;;;;;;;5.72;1.17;;;;;;;18.79;59.56;96370.16;10344785;28;98593;-66
2022/09/20 15:30:46;;;;;;;2.85;1.00;;;;;;;18.79;60.31;96370.94;10341791;28;97826;-65
2022/09/20 15:35:49;;;;;;;2.58;1.08;;;;;;;18.95;60.37;96371.66;10334460;28;97804;-67
2022/09/20 15:40:54;;;;;;;5.32;1.83;;;;;;;18.83;60.82;96371.41;10340748;28;96894;-62
2022/09/20 15:45:59;;;;;;;1.73;0.80;;;;;;;18.66;60.75;96374.34;10342080;28;96826;-67
2022/09/20 15:51:05;;;;;;;3.47;0.90;;;;;;;19.06;59.66;96376.41;10338691;28;96687;-68
2022/09/20 15:56:18;;;;;;;3.53;1.00;;;;;;;19.36;58.40;96376.09;10337488;28;97026;-68
2022/09/20 16:01:20;;;;;;;4.65;1.33;;;;;;;19.46;58.57;96371.25;10337574;28;96752;-68
2022/09/20 16:06:24;;;;;;;2.80;0.80;;;;;;;19.48;58.49;96377.16;10338495;28;98492;-68
2022/09/20 16:11:29;;;;;;;2.47;1.20;;;;;;;19.54;57.66;96381.66;10340372;28;97297;-68
2022/09/20 16:16:33;;;;;;;3.88;1.25;;;;;;;19.30;58.80;96368.94;10346605;28;96812;-69
2022/09/20 16:21:43;;;;;;;3.15;0.90;;;;;;;19.53;58.26;96376.56;10345600;28;96841;-69
2022/09/20 16:26:47;;;;;;;;;;;;;;;19.16;59.58;96382.16;10340163;28;96600;-68
2022/09/20 16:31:51;;;;;;;3.50;1.15;;;;;;;18.93;60.64;96379.00;10339498;28;97133;-70
2022/09/20 16:36:57;;;;;;;4.75;1.02;;;;;;;19.02;59.75;96385.78;10336506;28;96840;-70
2022/09/20 16:42:03;;;;;;;3.33;0.82;;;;;;;18.89;59.95;96381.22;10339260;28;96763;-69
2022/09/20 16:47:10;;;;;;;2.97;1.00;;;;;;;18.22;62.16;96387.91;10339292;28;98029;-70
2022/09/20 16:52:13;;;;;;;4.07;0.88;;;;;;;17.64;64.37;96385.34;10326517;28;96825;-70
2022/09/20 16:57:17;;;;;;;3.95;1.02;;;;;;;17.15;66.68;96392.16;10329187;28;97091;-70
2022/09/20 17:02:20;;;;;;;4.25;1.15;;;;;;;16.61;69.75;96388.78;10339541;28;96798;-69
2022/09/20 17:07:23;;;;;;;3.50;1.10;;;;;;;16.35;73.06;96404.25;10333573;28;96957;-70
2022/09/20 17:12:31;;;;;;;4.40;1.30;;;;;;;15.91;77.09;96397.84;10337643;28;97273;-69
2022/09/20 17:17:34;;;;;;;3.58;1.13;;;;;;;15.59;80.79;96410.28;10302831;28;96810;-70
2022/09/20 17:22:37;;;;;;;4.07;1.15;;;;;;;15.30;85.20;96413.53;10308056;28;97287;-70
2022/09/20 17:27:41;;;;;;;3.88;1.25;;;;;;;14.98;89.07;96409.28;10317485;28;96854;-69
2022/09/20 17:32:49;;;;;;;4.60;1.30;;;;;;;14.74;91.66;96413.63;10336232;28;98565;-70
2022/09/20 17:37:52;;;;;;;3.40;1.23;;;;;;;14.54;93.50;96424.53;10330068;28;96898;-70
2022/09/20 17:42:56;;;;;;;3.20;1.10;;;;;;;14.31;95.82;96419.13;10336325;28;97104;-69
2022/09/20 17:47:59;;;;;;;4.18;1.13;;;;;;;13.99;99.57;96431.28;10344387;28;97370;-66
2022/09/20 17:53:02;;;;;;;5.05;1.10;;;;;;;13.73;100.00;96428.81;10323827;28;96983;-67
2022/09/20 17:58:06;;;;;;;3.40;0.90;;;;;;;13.60;100.00;96438.97;10306063;28;98523;-68
2022/09/20 18:03:09;;;;;;;4.85;1.10;;;;;;;13.41;100.00;96434.81;10329448;28;99094;-70
2022/09/20 18:08:12;;;;;;;3.72;1.13;;;;;;;13.27;100.00;96451.19;10321213;28;98776;-69
2022/09/20 18:13:16;;;;;;;2.65;1.10;;;;;;;13.10;100.00;96455.56;10329219;28;96851;-70
2022/09/20 18:18:19;;;;;;;8.67;5.43;;;;;;;13.01;100.00;96462.56;10311551;28;97307;-71
2022/09/20 18:23:22;;;;;;;4.30;1.65;;;;;;;12.96;100.00;96462.22;10334861;28;96760;-70
2022/09/20 18:28:27;;;;;;;4.40;1.40;;;;;;;12.91;100.00;96461.84;10333929;28;97300;-68
2022/09/20 18:33:30;;;;;;;4.97;1.60;;;;;;;12.87;100.00;96466.56;10341257;28;97012;-69
2022/09/20 18:38:33;;;;;;;3.58;1.45;;;;;;;12.83;100.00;96460.81;10337605;28;97107;-69
2022/09/20 18:43:37;;;;;;;4.25;1.20;;;;;;;12.81;100.00;96473.25;10337650;28;97202;-69
2022/09/20 18:48:40;;;;;;;5.80;1.30;;;;;;;12.78;100.00;96472.75;10340578;28;96731;-69
2022/09/20 18:53:42;;;;;;;4.75;1.30;;;;;;;12.73;100.00;96470.59;10340175;28;97066;-69
2022/09/20 18:58:47;;;;;;;2.97;1.30;;;;;;;12.74;100.00;96476.69;10339383;28;98526;-69
2022/09/20 19:04:00;;;;;;;5.70;1.20;;;;;;;12.74;100.00;96482.72;10339508;28;97668;-69
2022/09/20 19:09:08;;;;;;;8.00;1.73;;;;;;;12.74;100.00;96498.47;10338456;28;97989;-69
2022/09/20 19:14:19;;;;;;;3.05;1.40;;;;;;;12.77;100.00;96500.78;10337743;28;97020;-69
2022/09/20 19:19:38;;;;;;;3.60;1.13;;;;;;;12.77;100.00;96500.78;10338247;28;97158;-69
2022/09/20 19:25:02;;;;;;;4.28;1.17;;;;;;;12.77;100.00;96502.56;10337279;28;96838;-69
2022/09/20 19:30:07;;;;;;;3.00;1.40;;;;;;;12.69;100.00;96509.41;10335593;28;96962;-69
2022/09/20 19:35:18;;;;;;;2.58;1.45;;;;;;;12.64;100.00;96518.72;10336286;28;97209;-69
2022/09/20 19:40:28;;;;;;;5.95;1.52;;;;;;;12.50;100.00;96513.03;10339591;28;96753;-69
2022/09/20 19:45:43;;;;;;;2.25;1.00;;;;;;;12.44;100.00;96518.06;10333425;28;98581;-69
2022/09/20 19:50:51;;;;;;;3.60;1.00;;;;;;;12.37;100.00;96512.63;10335290;28;97229;-68
2022/09/20 19:55:59;;;;;;;3.17;1.13;;;;;;;12.36;100.00;96518.03;10335838;28;97394;-69
2022/09/20 20:01:04;;;;;;;3.95;1.00;;;;;;;12.27;100.00;96520.56;10337163;28;97059;-68
2022/09/20 20:06:16;;;;;;;2.80;1.02;;;;;;;12.18;100.00;96524.09;10335740;28;97306;-69
2022/09/20 20:11:32;;;;;;;2.22;0.90;;;;;;;12.11;100.00;96534.34;10333122;28;98321;-69
2022/09/20 20:16:50;;;;;;;3.22;0.90;;;;;;;12.07;100.00;96535.59;10333541;28;97260;-70
2022/09/20 20:21:58;;;;;;;1.95;0.88;;;;;;;11.97;100.00;96532.25;10334326;28;96839;-67
2022/09/20 20:27:01;;;;;;;6.10;1.17;;;;;;;11.97;100.00;96536.66;10331963;28;97056;-70
2022/09/20 20:32:05;;;;;;;2.38;0.88;;;;;;;11.94;100.00;96543.03;10338632;28;97016;-68
2022/09/20 20:37:08;;;;;;;2.10;0.87;;;;;;;11.93;100.00;96536.13;10340397;28;97190;-68
2022/09/20 20:42:11;;;;;;;5.35;3.55;;;;;;;11.92;100.00;96535.31;10332160;28;96898;-70
2022/09/20 20:47:15;;;;;;;4.75;1.20;;;;;;;11.90;100.00;96542.50;10330910;28;97543;-69
2022/09/20 20:52:18;;;;;;;3.47;1.00;;;;;;;11.87;100.00;96536.75;10335883;28;96807;-69
2022/09/20 20:57:21;;;;;;;2.60;0.98;;;;;;;11.84;100.00;96542.25;10333140;28;96756;-69
2022/09/20 21:02:25;;;;;;;2.92;0.88;;;;;;;11.81;100.00;96532.09;10331380;28;97315;-69
2022/09/20 21:07:28;;;;;;;3.47;1.33;;;;;;;11.77;100.00;96541.22;10334240;28;97003;-67
2022/09/20 21:12:31;;;;;;;5.20;1.20;;;;;;;11.73;100.00;96525.81;10329945;28;96856;-70
2022/09/20 21:17:35;;;;;;;2.28;1.00;;;;;;;11.71;100.00;96529.53;10329699;28;98501;-69
2022/09/20 21:22:38;;;;;;;1.90;0.90;;;;;;;11.66;100.00;96527.38;10336080;28;97067;-69
2022/09/20 21:27:40;;;;;;;2.10;1.13;;;;;;;11.64;100.00;96531.94;10348906;28;98494;-69
2022/09/20 21:32:45;;;;;;;1.63;0.70;;;;;;;11.58;100.00;96527.28;10345109;28;97060;-69
2022/09/20 21:37:48;;;;;;;2.03;1.00;;;;;;;11.58;100.00;96516.00;10336785;28;96912;-68
2022/09/20 21:42:51;;;;;;;1.92;0.70;;;;;;;11.52;100.00;96520.03;10337834;28;97257;-69
2022/09/20 21:47:56;;;;;;;2.78;1.13;;;;;;;11.52;100.00;96517.41;10336725;28;97086;-69
2022/09/20 21:52:59;;;;;;;3.57;0.90;;;;;;;11.53;100.00;96513.81;10336798;28;97282;-68
2022/09/20 21:58:02;;;;;;;3.03;1.10;;;;;;;11.55;100.00;96522.31;10337993;28;99040;-69
2022/09/20 22:03:06;;;;;;;1.73;0.90;;;;;;;11.49;100.00;96517.69;10329299;28;96938;-68
2022/09/20 22:08:09;;;;;;;2.03;0.70;;;;;;;11.44;100.00;96514.69;10340952;28;97124;-68
2022/09/20 22:13:12;;;;;;;1.95;0.90;;;;;;;11.40;100.00;96510.69;10338832;28;98005;-69
2022/09/20 22:18:16;;;;;;;2.35;1.00;;;;;;;11.34;100.00;96504.28;10334946;28;97792;-69
2022/09/20 22:23:19;;;;;;;1.87;0.87;;;;;;;11.32;100.00;96504.41;10333430;28;96938;-69
2022/09/20 22:28:21;;;;;;;3.15;0.70;;;;;;;11.30;100.00;96511.56;10358096;28;96885;-68
2022/09/20 22:33:26;;;;;;;1.92;0.77;;;;;;;11.26;100.00;96514.59;10342799;28;96931;-68
2022/09/20 22:38:30;;;;;;;2.45;0.80;;;;;;;11.14;100.00;96519.22;10341313;28;97630;-67
2022/09/20 22:43:34;;;;;;;3.20;1.03;;;;;;;11.14;100.00;96521.81;10341347;28;97282;-70
2022/09/20 22:48:39;;;;;;;3.92;1.25;;;;;;;11.14;100.00;96527.88;10332882;28;96858;-69
2022/09/20 22:53:42;;;;;;;2.63;0.70;;;;;;;11.04;100.00;96523.66;10322381;28;97748;-68
2022/09/20 22:58:46;;;;;;;3.92;0.82;;;;;;;10.95;100.00;96520.13;10336759;28;98567;-69
2022/09/20 23:03:55;;;;;;;2.30;0.82;;;;;;;10.87;100.00;96507.75;10337391;28;97611;-68
2022/09/20 23:09:00;;;;;;;1.73;0.90;;;;;;;10.89;100.00;96528.50;10337376;28;96920;-68
2022/09/20 23:14:04;;;;;;;1.38;0.88;;;;;;;10.88;100.00;96529.50;10324237;28;97701;-69
2022/09/20 23:19:09;;;;;;;2.92;0.98;;;;;;;10.76;100.00;96516.59;10319353;28;98431;-68
2022/09/20 23:24:16;;;;;;;3.00;1.00;;;;;;;10.82;100.00;96519.59;10319470;28;96914;-68
2022/09/20 23:29:18;;;;;;;0.90;0.60;;;;;;;10.75;100.00;96529.78;10336515;28;98803;-69
2022/09/20 23:34:22;;;;;;;2.45;1.00;;;;;;;10.68;100.00;96528.72;10356356;28;97176;-67
2022/09/20 23:39:25;;;;;;;2.63;0.98;;;;;;;10.63;100.00;96521.28;10352238;28;97211;-68
2022/09/20 23:44:28;;;;;;;1.95;0.77;;;;;;;10.60;100.00;96527.63;10381196;28;97999;-68
2022/09/20 23:49:32;;;;;;;4.32;1.00;;;;;;;10.61;100.00;96529.25;10379103;28;96918;-69
2022/09/20 23:54:35;;;;;;;3.63;0.90;;;;;;;10.57;100.00;96527.91;10350658;28;97081;-68
2022/09/20 23:59:38;;;;;;;2.45;1.10;;;;;;;10.57;100.00;96534.94;10338556;28;96899;-68
